createdAt,value
2024-04-19T00:01:53.939Z,4.75
2024-04-19T00:04:21.415Z,5.55
2024-04-19T00:06:53.735Z,5.22
2024-04-19T00:09:20.971Z,2.95
2024-04-19T00:11:50.515Z,4.22
2024-04-19T00:14:17.792Z,6.32
2024-04-19T00:16:47.592Z,4.47
2024-04-19T00:19:17.175Z,4.90
2024-04-19T00:21:44.215Z,6.60
2024-04-19T00:24:16.593Z,6.15
2024-04-19T00:26:43.629Z,5.20
2024-04-19T00:29:13.320Z,5.55
2024-04-19T00:31:40.369Z,6.93
2024-04-19T00:34:10.469Z,5.45
2024-04-19T00:36:37.647Z,3.88
2024-04-19T00:39:07.361Z,4.88
2024-04-19T00:41:36.981Z,4.80
2024-04-19T00:44:06.579Z,6.88
2024-04-19T00:46:34.197Z,5.72
2024-04-19T00:49:04.257Z,4.85
2024-04-19T00:51:33.167Z,4.93
2024-04-19T00:54:02.967Z,6.78
2024-04-19T00:56:32.094Z,6.03
2024-04-19T00:59:04.329Z,5.40
2024-04-19T01:01:31.861Z,4.45
2024-04-19T01:04:01.557Z,5.13
2024-04-19T01:06:28.739Z,6.88
2024-04-19T01:08:58.543Z,6.55
2024-04-19T01:11:32.164Z,5.38
2024-04-19T01:14:04.591Z,4.93
2024-04-19T01:16:31.828Z,5.38
2024-04-19T01:19:01.434Z,6.38
2024-04-19T01:21:29.973Z,6.30
2024-04-19T01:24:08.557Z,6.88
2024-04-19T01:26:37.971Z,6.65
2024-04-19T01:29:07.341Z,7.80
2024-04-19T01:31:34.248Z,6.35
2024-04-19T01:34:03.686Z,6.35
2024-04-19T01:36:30.598Z,5.93
2024-04-19T01:39:00.004Z,7.00
2024-04-19T01:41:27.073Z,4.93
2024-04-19T01:43:59.686Z,7.45
2024-04-19T01:46:26.502Z,7.18
2024-04-19T01:48:56.004Z,8.73
2024-04-19T01:51:22.981Z,7.85
2024-04-19T01:53:52.424Z,7.13
2024-04-19T01:56:21.906Z,6.80
2024-04-19T01:58:48.745Z,6.63
2024-04-19T02:01:21.045Z,7.55
2024-04-19T02:03:48.024Z,8.35
2024-04-19T02:06:18.481Z,12.90
2024-04-19T02:08:45.332Z,7.43
2024-04-19T02:11:14.755Z,7.57
2024-04-19T02:13:41.579Z,8.05
2024-04-19T02:16:10.938Z,7.97
2024-04-19T02:18:40.390Z,9.55
2024-04-19T02:21:09.860Z,9.68
2024-04-19T02:23:46.403Z,6.90
2024-04-19T02:26:13.495Z,8.18
2024-04-19T02:29:00.092Z,7.20
2024-04-19T02:31:30.194Z,6.22
2024-04-19T02:34:02.289Z,5.85
2024-04-19T02:36:29.184Z,6.20
2024-04-19T02:38:58.575Z,6.70
2024-04-19T02:41:28.020Z,7.85
2024-04-19T02:43:57.373Z,7.97
2024-04-19T02:46:26.847Z,5.43
2024-04-19T02:48:56.340Z,6.30
2024-04-19T02:51:28.404Z,5.00
2024-04-19T02:53:57.788Z,5.38
2024-04-19T02:56:27.375Z,4.60
2024-04-19T02:58:56.786Z,4.95
2024-04-19T03:01:26.269Z,6.15
2024-04-19T03:03:55.701Z,4.63
2024-04-19T03:06:27.886Z,6.78
2024-04-19T03:08:57.316Z,5.03
2024-04-19T03:11:46.859Z,6.28
2024-04-19T03:14:16.266Z,4.53
2024-04-19T03:16:45.635Z,5.53
2024-04-19T03:19:14.977Z,6.63
2024-04-19T03:21:47.028Z,7.20
2024-04-19T03:24:16.458Z,6.07
2024-04-19T03:26:47.577Z,6.28
2024-04-19T03:29:17.005Z,5.67
2024-04-19T03:31:46.408Z,7.22
2024-04-19T03:34:15.934Z,6.28
2024-04-19T03:36:47.934Z,5.40
2024-04-19T03:41:48.174Z,7.43
2024-04-19T03:44:33.726Z,7.53
2024-04-19T03:47:03.121Z,6.95
2024-04-19T03:49:32.598Z,6.45
2024-04-19T03:52:04.622Z,6.40
2024-04-19T03:57:03.673Z,8.75
2024-04-19T03:59:33.087Z,6.30
2024-04-19T04:02:17.913Z,7.88
2024-04-19T04:04:56.595Z,8.07
2024-04-19T04:07:28.615Z,7.30
2024-04-19T04:09:58.186Z,7.30
2024-04-19T04:12:27.665Z,6.45
2024-04-19T04:14:57.080Z,6.97
2024-04-19T04:17:26.592Z,6.25
2024-04-19T04:19:56.308Z,6.90
2024-04-19T04:22:28.371Z,6.50
2024-04-19T04:24:57.752Z,6.20
2024-04-19T04:27:27.549Z,6.32
2024-04-19T04:29:56.991Z,5.68
2024-04-19T04:32:26.424Z,7.72
2024-04-19T04:34:55.793Z,6.63
2024-04-19T04:37:29.751Z,6.68
2024-04-19T04:39:59.228Z,7.53
2024-04-19T04:42:28.734Z,6.90
2024-04-19T04:44:58.155Z,7.60
2024-04-19T04:47:27.618Z,7.38
2024-04-19T04:49:57.081Z,6.88
2024-04-19T04:52:29.400Z,7.38
2024-04-19T04:54:58.981Z,6.85
2024-04-19T04:57:28.522Z,7.82
2024-04-19T04:59:57.986Z,7.90
2024-04-19T05:02:27.480Z,9.32
2024-04-19T05:04:57.772Z,8.85
2024-04-19T05:07:31.124Z,8.67
2024-04-19T05:10:00.576Z,7.18
2024-04-19T05:12:30.388Z,8.18
2024-04-19T05:14:59.986Z,8.02
2024-04-19T05:17:29.519Z,9.20
2024-04-19T05:19:58.958Z,7.28
2024-04-19T05:22:30.950Z,8.32
2024-04-19T05:27:29.839Z,8.63
2024-04-19T05:29:59.240Z,7.35
2024-04-19T05:32:28.710Z,10.25
2024-04-19T05:34:58.182Z,8.52
2024-04-19T05:37:27.610Z,8.27
2024-04-19T05:39:59.601Z,8.65
2024-04-19T05:45:01.162Z,8.48
2024-04-19T05:47:30.569Z,8.98
2024-04-19T05:49:59.962Z,8.23
2024-04-19T05:52:29.390Z,7.78
2024-04-19T05:55:01.715Z,7.45
2024-04-19T05:57:31.244Z,7.93
2024-04-19T06:00:00.753Z,7.82
2024-04-19T06:02:30.293Z,7.20
2024-04-19T06:04:59.778Z,7.75
2024-04-19T06:07:29.182Z,7.75
2024-04-19T06:10:01.206Z,6.78
2024-04-19T06:14:59.923Z,7.22
2024-04-19T06:17:29.422Z,7.60
2024-04-19T06:19:58.867Z,6.90
2024-04-19T06:22:28.297Z,6.53
2024-04-19T06:24:57.894Z,7.78
2024-04-19T06:27:29.963Z,6.22
2024-04-19T06:29:59.371Z,7.28
2024-04-19T06:32:28.790Z,5.38
2024-04-19T06:34:58.221Z,6.68
2024-04-19T06:37:28.445Z,6.82
2024-04-19T06:40:05.434Z,5.90
2024-04-19T06:42:39.829Z,5.63
2024-04-19T06:45:10.004Z,5.20
2024-04-19T06:47:39.745Z,5.60
2024-04-19T06:50:09.990Z,4.57
2024-04-19T06:52:39.441Z,5.55
2024-04-19T06:55:09.064Z,5.75
2024-04-19T06:57:41.241Z,5.22
2024-04-19T07:00:22.153Z,6.70
2024-04-19T07:03:03.440Z,4.85
2024-04-19T07:05:33.846Z,5.13
2024-04-19T07:08:03.319Z,4.63
2024-04-19T07:10:32.748Z,4.93
2024-04-19T07:13:05.146Z,4.40
2024-04-19T07:15:34.865Z,5.50
2024-04-19T07:18:07.062Z,4.32
2024-04-19T07:20:36.532Z,5.22
2024-04-19T07:23:05.975Z,4.28
2024-04-19T07:25:35.423Z,4.22
2024-04-19T07:28:08.087Z,5.25
2024-04-19T07:30:37.596Z,5.05
2024-04-19T07:33:07.505Z,6.22
2024-04-19T07:35:36.968Z,4.32
2024-04-19T07:38:06.714Z,4.10
2024-04-19T07:40:36.918Z,4.65
2024-04-19T07:43:09.006Z,3.50
2024-04-19T07:45:38.496Z,4.00
2024-04-19T07:48:08.844Z,4.53
2024-04-19T07:50:38.350Z,4.07
2024-04-19T07:53:09.666Z,4.45
2024-04-19T07:55:41.432Z,4.68
2024-04-19T07:58:13.637Z,3.70
2024-04-19T08:00:43.535Z,4.60
2024-04-19T08:03:12.968Z,3.90
2024-04-19T08:05:42.384Z,4.00
2024-04-19T08:08:11.825Z,4.10
2024-04-19T08:10:41.229Z,4.10
2024-04-19T08:13:13.507Z,4.18
2024-04-19T08:15:43.211Z,3.72
2024-04-19T08:18:12.929Z,3.95
2024-04-19T08:20:42.420Z,4.47
2024-04-19T08:23:13.482Z,4.75
2024-04-19T08:25:44.178Z,4.93
2024-04-19T08:28:16.328Z,4.35
2024-04-19T08:30:45.878Z,4.28
2024-04-19T08:33:15.411Z,4.20
2024-04-19T08:35:45.043Z,5.05
2024-04-19T08:38:14.566Z,5.35
2024-04-19T08:40:53.844Z,4.90
2024-04-19T08:43:26.497Z,4.30
2024-04-19T08:46:00.900Z,5.13
2024-04-19T08:48:32.742Z,4.57
2024-04-19T08:51:03.463Z,4.50
2024-04-19T08:53:33.456Z,3.92
2024-04-19T08:56:04.448Z,3.50
2024-04-19T08:58:38.027Z,3.70
2024-04-19T22:50:53.368Z,5.72
2024-04-19T22:53:22.726Z,3.15
2024-04-19T22:55:56.703Z,3.75
2024-04-19T22:58:26.694Z,7.40
2024-04-19T23:00:56.202Z,6.07
2024-04-19T23:03:25.695Z,7.68
2024-04-19T23:06:06.227Z,6.35
2024-04-19T23:08:35.778Z,4.60
2024-04-19T23:11:05.701Z,5.85
2024-04-19T23:13:35.484Z,6.40
2024-04-19T23:16:05.286Z,5.38
2024-04-19T23:18:35.075Z,5.45
2024-04-19T23:21:08.728Z,5.60
2024-04-19T23:23:40.538Z,8.73
2024-04-19T23:26:12.156Z,7.07
2024-04-19T23:28:39.764Z,6.80
2024-04-19T23:31:09.712Z,6.40
2024-04-19T23:33:39.337Z,4.47
2024-04-19T23:36:14.063Z,7.38
2024-04-19T23:38:43.469Z,5.75
2024-04-19T23:41:14.340Z,4.95
2024-04-19T23:43:43.743Z,7.07
2024-04-19T23:46:13.114Z,4.60
2024-04-19T23:48:42.572Z,5.38
2024-04-19T23:51:15.148Z,7.35
2024-04-19T23:53:44.580Z,3.40
2024-04-19T23:56:13.991Z,4.30
2024-04-19T23:58:43.292Z,7.00
